sensor_id;sensor_type;location;lat;lon;timestamp;pressure;altitude;pressure_sealevel;temperature;humidity
63194;BME280;49289;51.670;5.624;2023-03-20T00:00:31;102109.30;;;15.39;57.39
63194;BME280;49289;51.670;5.624;2023-03-20T00:02:19;102108.78;;;15.48;57.45
63194;BME280;49289;51.670;5.624;2023-03-20T00:04:05;102124.81;;;15.79;56.87
63194;BME280;49289;51.670;5.624;2023-03-20T00:05:52;102128.75;;;15.45;57.31
63194;BME280;49289;51.670;5.624;2023-03-20T00:07:39;102113.07;;;15.07;57.86
63194;BME280;49289;51.670;5.624;2023-03-20T00:09:26;102113.23;;;15.19;57.97
63194;BME280;49289;51.670;5.624;2023-03-20T00:11:17;102108.08;;;15.59;57.03
63194;BME280;49289;51.670;5.624;2023-03-20T00:13:03;102112.09;;;14.97;58.08
63194;BME280;49289;51.670;5.624;2023-03-20T00:14:51;102107.92;;;15.28;57.65
63194;BME280;49289;51.670;5.624;2023-03-20T00:16:39;102123.70;;;14.99;58.43
63194;BME280;49289;51.670;5.624;2023-03-20T00:18:27;102116.58;;;15.01;58.37
63194;BME280;49289;51.670;5.624;2023-03-20T00:20:18;102115.52;;;15.03;58.10
63194;BME280;49289;51.670;5.624;2023-03-20T00:22:07;102118.27;;;15.11;58.41
63194;BME280;49289;51.670;5.624;2023-03-20T00:23:54;102119.19;;;15.13;58.30
63194;BME280;49289;51.670;5.624;2023-03-20T00:25:42;102120.78;;;15.20;58.06
63194;BME280;49289;51.670;5.624;2023-03-20T00:27:30;102119.55;;;15.42;57.40
63194;BME280;49289;51.670;5.624;2023-03-20T00:29:18;102099.69;;;15.27;57.76
63194;BME280;49289;51.670;5.624;2023-03-20T00:31:05;102119.01;;;15.49;57.20
63194;BME280;49289;51.670;5.624;2023-03-20T00:32:52;102097.68;;;15.58;56.93
63194;BME280;49289;51.670;5.624;2023-03-20T00:34:40;102109.81;;;15.24;58.26
63194;BME280;49289;51.670;5.624;2023-03-20T00:36:28;102104.72;;;15.26;58.12
63194;BME280;49289;51.670;5.624;2023-03-20T00:38:16;102087.97;;;15.04;58.29
63194;BME280;49289;51.670;5.624;2023-03-20T00:40:04;102092.59;;;15.10;58.50
63194;BME280;49289;51.670;5.624;2023-03-20T00:41:53;102099.84;;;15.72;57.17
63194;BME280;49289;51.670;5.624;2023-03-20T00:43:40;102095.92;;;15.36;58.09
63194;BME280;49289;51.670;5.624;2023-03-20T00:45:29;102092.42;;;15.04;58.12
63194;BME280;49289;51.670;5.624;2023-03-20T00:47:17;102088.04;;;15.47;57.71
63194;BME280;49289;51.670;5.624;2023-03-20T00:49:05;102084.91;;;15.18;58.02
63194;BME280;49289;51.670;5.624;2023-03-20T00:50:53;102059.48;;;15.39;57.29
63194;BME280;49289;51.670;5.624;2023-03-20T00:52:41;102063.83;;;15.32;57.46
63194;BME280;49289;51.670;5.624;2023-03-20T00:54:29;102078.68;;;15.46;57.04
63194;BME280;49289;51.670;5.624;2023-03-20T00:58:10;102068.98;;;15.17;57.63
63194;BME280;49289;51.670;5.624;2023-03-20T00:59:59;102072.86;;;14.67;58.84
63194;BME280;49289;51.670;5.624;2023-03-20T01:01:47;102087.17;;;15.24;57.79
63194;BME280;49289;51.670;5.624;2023-03-20T01:03:35;102067.38;;;15.49;56.77
63194;BME280;49289;51.670;5.624;2023-03-20T01:05:23;102087.09;;;15.59;56.55
63194;BME280;49289;51.670;5.624;2023-03-20T01:07:11;102094.79;;;15.48;56.63
63194;BME280;49289;51.670;5.624;2023-03-20T01:08:59;102082.27;;;14.80;57.71
63194;BME280;49289;51.670;5.624;2023-03-20T01:10:48;102104.62;;;15.32;56.90
63194;BME280;49289;51.670;5.624;2023-03-20T01:12:35;102090.63;;;15.51;56.07
63194;BME280;49289;51.670;5.624;2023-03-20T01:14:23;102109.75;;;15.83;54.96
63194;BME280;49289;51.670;5.624;2023-03-20T01:16:16;102107.19;;;15.32;56.09
63194;BME280;49289;51.670;5.624;2023-03-20T01:18:02;102111.56;;;15.17;56.74
63194;BME280;49289;51.670;5.624;2023-03-20T01:19:47;102126.34;;;15.62;55.64
63194;BME280;49289;51.670;5.624;2023-03-20T01:21:34;102103.11;;;15.47;55.75
63194;BME280;49289;51.670;5.624;2023-03-20T01:23:21;102115.08;;;15.63;55.57
63194;BME280;49289;51.670;5.624;2023-03-20T01:25:08;102098.34;;;15.52;55.26
63194;BME280;49289;51.670;5.624;2023-03-20T01:26:57;102113.62;;;15.83;54.83
63194;BME280;49289;51.670;5.624;2023-03-20T01:28:44;102114.73;;;15.44;56.06
63194;BME280;49289;51.670;5.624;2023-03-20T01:30:33;102121.61;;;15.16;56.28
63194;BME280;49289;51.670;5.624;2023-03-20T01:32:21;102122.00;;;15.17;56.50
63194;BME280;49289;51.670;5.624;2023-03-20T01:34:09;102108.06;;;15.06;56.70
63194;BME280;49289;51.670;5.624;2023-03-20T01:35:56;102109.39;;;14.87;57.05
63194;BME280;49289;51.670;5.624;2023-03-20T01:37:43;102130.03;;;15.38;56.14
63194;BME280;49289;51.670;5.624;2023-03-20T01:39:31;102133.70;;;15.12;56.45
63194;BME280;49289;51.670;5.624;2023-03-20T01:41:19;102140.67;;;15.55;55.44
63194;BME280;49289;51.670;5.624;2023-03-20T01:43:07;102135.45;;;15.28;55.85
63194;BME280;49289;51.670;5.624;2023-03-20T01:44:55;102113.14;;;15.24;55.43
63194;BME280;49289;51.670;5.624;2023-03-20T01:46:43;102128.08;;;15.68;55.00
63194;BME280;49289;51.670;5.624;2023-03-20T01:48:31;102110.46;;;15.60;54.60
63194;BME280;49289;51.670;5.624;2023-03-20T01:50:30;102111.98;;;15.47;54.68
63194;BME280;49289;51.670;5.624;2023-03-20T01:52:17;102126.83;;;15.23;55.75
63194;BME280;49289;51.670;5.624;2023-03-20T01:54:05;102112.25;;;14.97;55.82
63194;BME280;49289;51.670;5.624;2023-03-20T01:55:51;102128.99;;;15.12;55.91
63194;BME280;49289;51.670;5.624;2023-03-20T01:57:38;102104.84;;;15.18;55.13
63194;BME280;49289;51.670;5.624;2023-03-20T01:59:26;102103.44;;;15.40;54.81
63194;BME280;49289;51.670;5.624;2023-03-20T02:01:12;102103.38;;;15.24;54.95
63194;BME280;49289;51.670;5.624;2023-03-20T02:02:59;102105.97;;;15.05;54.62
63194;BME280;49289;51.670;5.624;2023-03-20T02:04:47;102118.06;;;15.53;54.23
63194;BME280;49289;51.670;5.624;2023-03-20T02:06:33;102093.75;;;15.51;53.85
63194;BME280;49289;51.670;5.624;2023-03-20T02:08:23;102097.08;;;14.95;54.60
63194;BME280;49289;51.670;5.624;2023-03-20T02:10:12;102091.52;;;15.25;54.30
63194;BME280;49289;51.670;5.624;2023-03-20T02:11:59;102119.00;;;15.32;54.08
63194;BME280;49289;51.670;5.624;2023-03-20T02:13:47;102119.06;;;15.49;53.85
63194;BME280;49289;51.670;5.624;2023-03-20T02:15:50;102106.14;;;15.68;53.33
63194;BME280;49289;51.670;5.624;2023-03-20T02:17:25;102110.97;;;15.87;52.89
63194;BME280;49289;51.670;5.624;2023-03-20T02:19:15;102106.03;;;15.92;52.63
63194;BME280;49289;51.670;5.624;2023-03-20T02:21:11;102105.06;;;15.92;52.40
63194;BME280;49289;51.670;5.624;2023-03-20T02:23:02;102112.41;;;15.41;53.42
63194;BME280;49289;51.670;5.624;2023-03-20T02:25:15;102112.51;;;15.70;52.74
63194;BME280;49289;51.670;5.624;2023-03-20T02:27:08;102102.08;;;15.74;52.37
63194;BME280;49289;51.670;5.624;2023-03-20T02:29:16;102131.10;;;15.75;52.50
63194;BME280;49289;51.670;5.624;2023-03-20T02:31:12;102124.87;;;15.57;52.86
63194;BME280;49289;51.670;5.624;2023-03-20T02:33:35;102125.64;;;14.51;55.35
63194;BME280;49289;51.670;5.624;2023-03-20T02:37:46;102119.55;;;14.43;55.92
63194;BME280;49289;51.670;5.624;2023-03-20T02:39:45;102133.36;;;14.38;56.38
63194;BME280;49289;51.670;5.624;2023-03-20T02:41:34;102133.38;;;14.00;57.30
63194;BME280;49289;51.670;5.624;2023-03-20T02:43:24;102137.47;;;14.08;57.38
63194;BME280;49289;51.670;5.624;2023-03-20T02:45:12;102112.25;;;13.99;57.35
63194;BME280;49289;51.670;5.624;2023-03-20T02:46:59;102108.19;;;14.08;57.00
63194;BME280;49289;51.670;5.624;2023-03-20T02:48:50;102123.67;;;14.11;57.28
63194;BME280;49289;51.670;5.624;2023-03-20T02:50:39;102116.72;;;14.23;56.65
63194;BME280;49289;51.670;5.624;2023-03-20T02:52:29;102112.20;;;14.30;56.75
63194;BME280;49289;51.670;5.624;2023-03-20T02:54:17;102113.64;;;14.56;56.10
63194;BME280;49289;51.670;5.624;2023-03-20T02:56:05;102090.30;;;14.16;56.68
63194;BME280;49289;51.670;5.624;2023-03-20T02:57:56;102104.77;;;14.55;56.24
63194;BME280;49289;51.670;5.624;2023-03-20T02:59:44;102083.38;;;14.27;56.43
63194;BME280;49289;51.670;5.624;2023-03-20T03:01:31;102103.03;;;13.92;57.46
63194;BME280;49289;51.670;5.624;2023-03-20T03:03:19;102087.20;;;14.33;56.50
63194;BME280;49289;51.670;5.624;2023-03-20T03:05:07;102081.84;;;14.31;56.43
63194;BME280;49289;51.670;5.624;2023-03-20T03:06:52;102103.16;;;14.37;56.55
63194;BME280;49289;51.670;5.624;2023-03-20T03:08:41;102089.59;;;14.17;56.82
63194;BME280;49289;51.670;5.624;2023-03-20T03:10:28;102108.84;;;14.00;57.35
63194;BME280;49289;51.670;5.624;2023-03-20T03:12:16;102089.47;;;14.20;56.46
63194;BME280;49289;51.670;5.624;2023-03-20T03:14:49;102079.58;;;14.11;56.38
63194;BME280;49289;51.670;5.624;2023-03-20T03:16:36;102100.53;;;13.97;57.66
63194;BME280;49289;51.670;5.624;2023-03-20T03:18:24;102091.96;;;14.04;57.55
63194;BME280;49289;51.670;5.624;2023-03-20T03:20:13;102089.69;;;14.24;56.79
63194;BME280;49289;51.670;5.624;2023-03-20T03:21:59;102091.41;;;13.85;57.83
63194;BME280;49289;51.670;5.624;2023-03-20T03:23:46;102064.98;;;13.94;57.49
63194;BME280;49289;51.670;5.624;2023-03-20T03:25:33;102067.08;;;14.19;56.67
63194;BME280;49289;51.670;5.624;2023-03-20T03:27:23;102058.27;;;14.24;56.35
63194;BME280;49289;51.670;5.624;2023-03-20T03:29:10;102050.98;;;14.17;56.68
63194;BME280;49289;51.670;5.624;2023-03-20T03:30:57;102039.88;;;14.07;56.62
63194;BME280;49289;51.670;5.624;2023-03-20T03:32:46;102055.80;;;14.09;56.94
63194;BME280;49289;51.670;5.624;2023-03-20T03:34:31;102033.00;;;14.26;56.38
63194;BME280;49289;51.670;5.624;2023-03-20T03:36:30;102052.06;;;14.34;56.33
63194;BME280;49289;51.670;5.624;2023-03-20T03:38:11;102044.70;;;14.04;56.38
63194;BME280;49289;51.670;5.624;2023-03-20T03:39:59;102052.91;;;14.00;56.40
63194;BME280;49289;51.670;5.624;2023-03-20T03:41:46;102066.00;;;13.85;57.35
63194;BME280;49289;51.670;5.624;2023-03-20T03:43:34;102068.03;;;13.54;57.93
63194;BME280;49289;51.670;5.624;2023-03-20T03:45:22;102052.05;;;13.35;58.58
63194;BME280;49289;51.670;5.624;2023-03-20T03:47:11;102066.78;;;13.66;58.36
63194;BME280;49289;51.670;5.624;2023-03-20T03:48:57;102070.54;;;13.60;58.22
63194;BME280;49289;51.670;5.624;2023-03-20T03:50:45;102064.29;;;13.76;57.28
63194;BME280;49289;51.670;5.624;2023-03-20T03:52:32;102067.49;;;14.22;56.48
63194;BME280;49289;51.670;5.624;2023-03-20T03:54:21;102060.57;;;13.98;56.52
63194;BME280;49289;51.670;5.624;2023-03-20T03:56:09;102040.98;;;13.73;57.30
63194;BME280;49289;51.670;5.624;2023-03-20T03:57:57;102038.16;;;13.34;58.57
63194;BME280;49289;51.670;5.624;2023-03-20T03:59:45;102040.94;;;13.35;57.97
63194;BME280;49289;51.670;5.624;2023-03-20T04:01:33;102040.16;;;13.58;57.35
63194;BME280;49289;51.670;5.624;2023-03-20T04:03:22;102038.18;;;13.10;58.67
63194;BME280;49289;51.670;5.624;2023-03-20T04:05:09;102040.56;;;13.18;59.03
63194;BME280;49289;51.670;5.624;2023-03-20T04:06:56;102044.38;;;12.64;60.05
63194;BME280;49289;51.670;5.624;2023-03-20T04:08:44;102056.27;;;13.37;58.55
63194;BME280;49289;51.670;5.624;2023-03-20T04:10:31;102041.03;;;13.39;58.57
63194;BME280;49289;51.670;5.624;2023-03-20T04:12:25;102061.73;;;13.84;57.32
63194;BME280;49289;51.670;5.624;2023-03-20T04:14:10;102043.97;;;13.68;57.39
63194;BME280;49289;51.670;5.624;2023-03-20T04:15:57;102040.37;;;13.13;58.17
63194;BME280;49289;51.670;5.624;2023-03-20T04:17:44;102036.71;;;13.33;58.26
63194;BME280;49289;51.670;5.624;2023-03-20T04:19:31;102058.18;;;13.47;58.16
63194;BME280;49289;51.670;5.624;2023-03-20T04:21:18;102055.75;;;13.64;57.61
63194;BME280;49289;51.670;5.624;2023-03-20T04:23:07;102033.31;;;13.60;57.22
63194;BME280;49289;51.670;5.624;2023-03-20T04:24:54;102057.34;;;12.83;59.37
63194;BME280;49289;51.670;5.624;2023-03-20T04:26:42;102030.45;;;13.09;58.56
63194;BME280;49289;51.670;5.624;2023-03-20T04:28:30;102038.34;;;13.39;57.80
63194;BME280;49289;51.670;5.624;2023-03-20T04:30:20;102043.72;;;13.18;58.62
63194;BME280;49289;51.670;5.624;2023-03-20T04:32:08;102048.97;;;13.52;57.78
63194;BME280;49289;51.670;5.624;2023-03-20T04:33:55;102042.50;;;13.60;57.37
63194;BME280;49289;51.670;5.624;2023-03-20T04:35:42;102022.75;;;13.41;57.54
63194;BME280;49289;51.670;5.624;2023-03-20T04:37:30;102041.55;;;13.44;57.87
63194;BME280;49289;51.670;5.624;2023-03-20T04:39:18;102037.83;;;13.23;58.36
63194;BME280;49289;51.670;5.624;2023-03-20T04:41:06;102035.80;;;13.22;58.47
63194;BME280;49289;51.670;5.624;2023-03-20T04:42:54;102010.69;;;13.33;57.86
63194;BME280;49289;51.670;5.624;2023-03-20T04:44:42;102008.59;;;13.01;58.39
63194;BME280;49289;51.670;5.624;2023-03-20T04:46:30;102024.87;;;13.35;57.93
63194;BME280;49289;51.670;5.624;2023-03-20T04:48:18;102021.66;;;13.50;57.52
63194;BME280;49289;51.670;5.624;2023-03-20T04:50:05;102007.52;;;13.41;57.35
63194;BME280;49289;51.670;5.624;2023-03-20T04:51:52;102003.10;;;13.37;57.33
63194;BME280;49289;51.670;5.624;2023-03-20T04:53:40;102014.72;;;13.37;57.72
63194;BME280;49289;51.670;5.624;2023-03-20T04:55:28;102017.85;;;13.38;57.50
63194;BME280;49289;51.670;5.624;2023-03-20T04:57:16;102001.56;;;13.09;58.11
63194;BME280;49289;51.670;5.624;2023-03-20T04:59:04;102024.67;;;13.05;58.02
63194;BME280;49289;51.670;5.624;2023-03-20T05:00:52;102013.39;;;12.83;58.89
63194;BME280;49289;51.670;5.624;2023-03-20T05:02:40;102020.81;;;12.98;58.52
63194;BME280;49289;51.670;5.624;2023-03-20T05:04:28;102045.97;;;13.09;57.98
63194;BME280;49289;51.670;5.624;2023-03-20T05:06:16;102031.25;;;13.22;57.55
63194;BME280;49289;51.670;5.624;2023-03-20T05:08:03;102027.05;;;13.12;57.75
63194;BME280;49289;51.670;5.624;2023-03-20T05:09:50;102023.47;;;13.30;57.11
63194;BME280;49289;51.670;5.624;2023-03-20T05:11:37;102023.11;;;13.12;57.53
63194;BME280;49289;51.670;5.624;2023-03-20T05:13:24;102039.03;;;13.48;56.84
63194;BME280;49289;51.670;5.624;2023-03-20T05:15:13;102017.52;;;13.12;57.39
63194;BME280;49289;51.670;5.624;2023-03-20T05:17:00;102020.59;;;13.44;57.15
63194;BME280;49289;51.670;5.624;2023-03-20T05:18:47;102033.65;;;12.86;58.36
63194;BME280;49289;51.670;5.624;2023-03-20T05:20:34;102028.66;;;13.35;57.56
63194;BME280;49289;51.670;5.624;2023-03-20T05:22:21;102009.05;;;13.21;57.08
63194;BME280;49289;51.670;5.624;2023-03-20T05:24:08;102008.45;;;13.31;57.13
63194;BME280;49289;51.670;5.624;2023-03-20T05:25:56;102007.45;;;13.22;57.05
63194;BME280;49289;51.670;5.624;2023-03-20T05:27:44;102031.16;;;13.41;56.67
63194;BME280;49289;51.670;5.624;2023-03-20T05:29:31;102036.17;;;12.88;58.35
63194;BME280;49289;51.670;5.624;2023-03-20T05:31:19;102028.12;;;13.28;57.41
63194;BME280;49289;51.670;5.624;2023-03-20T05:33:08;102028.83;;;13.21;57.38
63194;BME280;49289;51.670;5.624;2023-03-20T05:35:24;102027.80;;;13.18;57.29
63194;BME280;49289;51.670;5.624;2023-03-20T05:37:12;102003.03;;;13.62;56.04
63194;BME280;49289;51.670;5.624;2023-03-20T05:39:00;102019.48;;;13.65;55.97
63194;BME280;49289;51.670;5.624;2023-03-20T05:40:47;102021.80;;;13.28;56.96
63194;BME280;49289;51.670;5.624;2023-03-20T05:42:34;101995.98;;;13.48;56.26
63194;BME280;49289;51.670;5.624;2023-03-20T05:44:21;102001.69;;;13.37;56.64
63194;BME280;49289;51.670;5.624;2023-03-20T05:46:10;102024.80;;;13.54;56.41
63194;BME280;49289;51.670;5.624;2023-03-20T05:47:58;102031.22;;;13.28;57.30
63194;BME280;49289;51.670;5.624;2023-03-20T05:49:46;102023.82;;;13.69;56.14
63194;BME280;49289;51.670;5.624;2023-03-20T05:51:34;102032.22;;;14.08;55.24
63194;BME280;49289;51.670;5.624;2023-03-20T05:53:22;102017.86;;;13.69;55.38
63194;BME280;49289;51.670;5.624;2023-03-20T05:55:10;102038.38;;;13.65;56.23
63194;BME280;49289;51.670;5.624;2023-03-20T05:56:57;102046.53;;;13.45;56.45
63194;BME280;49289;51.670;5.624;2023-03-20T05:58:44;102037.07;;;13.35;56.46
63194;BME280;49289;51.670;5.624;2023-03-20T06:00:32;102055.33;;;13.03;57.66
63194;BME280;49289;51.670;5.624;2023-03-20T06:02:19;102058.75;;;13.16;57.24
63194;BME280;49289;51.670;5.624;2023-03-20T06:04:06;102041.54;;;13.32;56.92
63194;BME280;49289;51.670;5.624;2023-03-20T06:05:53;102062.17;;;13.10;57.74
63194;BME280;49289;51.670;5.624;2023-03-20T06:07:40;102062.02;;;12.99;57.74
63194;BME280;49289;51.670;5.624;2023-03-20T06:09:27;102045.70;;;12.72;58.58
63194;BME280;49289;51.670;5.624;2023-03-20T06:11:14;102049.33;;;12.72;58.77
63194;BME280;49289;51.670;5.624;2023-03-20T06:13:02;102038.55;;;12.77;58.44
63194;BME280;49289;51.670;5.624;2023-03-20T06:14:50;102057.55;;;12.96;58.44
63194;BME280;49289;51.670;5.624;2023-03-20T06:16:37;102060.86;;;12.62;59.12
63194;BME280;49289;51.670;5.624;2023-03-20T06:18:25;102067.28;;;12.72;58.82
63194;BME280;49289;51.670;5.624;2023-03-20T06:20:13;102050.13;;;13.15;57.87
63194;BME280;49289;51.670;5.624;2023-03-20T06:22:00;102053.83;;;13.08;57.28
63194;BME280;49289;51.670;5.624;2023-03-20T06:23:47;102052.20;;;12.77;58.51
63194;BME280;49289;51.670;5.624;2023-03-20T06:25:34;102057.91;;;12.91;58.08
63194;BME280;49289;51.670;5.624;2023-03-20T06:27:21;102055.27;;;12.85;58.10
63194;BME280;49289;51.670;5.624;2023-03-20T06:29:08;102057.78;;;12.94;58.16
63194;BME280;49289;51.670;5.624;2023-03-20T06:30:55;102057.91;;;13.16;57.71
63194;BME280;49289;51.670;5.624;2023-03-20T06:32:44;102048.73;;;13.26;56.81
63194;BME280;49289;51.670;5.624;2023-03-20T06:34:32;102061.98;;;13.18;57.34
63194;BME280;49289;51.670;5.624;2023-03-20T06:36:20;102052.11;;;13.54;56.69
63194;BME280;49289;51.670;5.624;2023-03-20T06:38:07;102079.27;;;13.11;57.41
63194;BME280;49289;51.670;5.624;2023-03-20T06:39:54;102073.29;;;13.67;56.37
63194;BME280;49289;51.670;5.624;2023-03-20T06:41:41;102061.71;;;13.06;57.13
63194;BME280;49289;51.670;5.624;2023-03-20T06:43:28;102060.32;;;13.45;56.64
63194;BME280;49289;51.670;5.624;2023-03-20T06:45:16;102060.50;;;13.32;57.14
63194;BME280;49289;51.670;5.624;2023-03-20T06:47:03;102077.79;;;13.32;57.12
63194;BME280;49289;51.670;5.624;2023-03-20T06:48:51;102066.95;;;12.88;57.31
63194;BME280;49289;51.670;5.624;2023-03-20T06:50:38;102089.70;;;12.85;58.38
63194;BME280;49289;51.670;5.624;2023-03-20T06:52:27;102069.26;;;13.29;56.64
63194;BME280;49289;51.670;5.624;2023-03-20T06:54:15;102085.88;;;13.60;56.42
63194;BME280;49289;51.670;5.624;2023-03-20T06:56:03;102074.62;;;13.07;56.98
63194;BME280;49289;51.670;5.624;2023-03-20T06:57:51;102092.08;;;13.41;56.61
63194;BME280;49289;51.670;5.624;2023-03-20T06:59:39;102092.64;;;13.29;56.50
63194;BME280;49289;51.670;5.624;2023-03-20T07:01:27;102076.67;;;13.36;56.50
63194;BME280;49289;51.670;5.624;2023-03-20T07:03:15;102087.92;;;13.90;55.45
63194;BME280;49289;51.670;5.624;2023-03-20T07:05:03;102091.54;;;13.61;55.25
63194;BME280;49289;51.670;5.624;2023-03-20T07:06:51;102093.18;;;13.84;55.46
63194;BME280;49289;51.670;5.624;2023-03-20T07:08:39;102076.00;;;13.57;55.31
63194;BME280;49289;51.670;5.624;2023-03-20T07:10:27;102100.38;;;13.50;55.69
63194;BME280;49289;51.670;5.624;2023-03-20T07:12:16;102107.60;;;13.38;56.09
63194;BME280;49289;51.670;5.624;2023-03-20T07:14:03;102098.65;;;13.87;55.38
63194;BME280;49289;51.670;5.624;2023-03-20T07:15:51;102096.12;;;12.99;56.88
63194;BME280;49289;51.670;5.624;2023-03-20T07:17:39;102109.92;;;13.76;55.56
63194;BME280;49289;51.670;5.624;2023-03-20T07:19:27;102113.33;;;13.55;55.91
63194;BME280;49289;51.670;5.624;2023-03-20T07:21:16;102097.78;;;13.57;55.63
63194;BME280;49289;51.670;5.624;2023-03-20T07:23:02;102101.09;;;13.26;56.75
63194;BME280;49289;51.670;5.624;2023-03-20T07:24:49;102112.81;;;13.82;55.82
63194;BME280;49289;51.670;5.624;2023-03-20T07:26:36;102095.44;;;13.97;54.85
63194;BME280;49289;51.670;5.624;2023-03-20T07:28:23;102097.83;;;13.72;55.31
63194;BME280;49289;51.670;5.624;2023-03-20T07:30:11;102091.77;;;13.69;55.60
63194;BME280;49289;51.670;5.624;2023-03-20T07:31:58;102097.53;;;14.19;54.44
63194;BME280;49289;51.670;5.624;2023-03-20T07:33:46;102112.96;;;14.00;54.45
63194;BME280;49289;51.670;5.624;2023-03-20T07:35:34;102096.99;;;14.20;54.40
63194;BME280;49289;51.670;5.624;2023-03-20T07:37:22;102093.06;;;14.08;54.78
63194;BME280;49289;51.670;5.624;2023-03-20T07:39:10;102110.11;;;14.30;54.36
63194;BME280;49289;51.670;5.624;2023-03-20T07:40:58;102095.43;;;14.32;54.14
63194;BME280;49289;51.670;5.624;2023-03-20T07:42:46;102117.25;;;14.43;54.01
63194;BME280;49289;51.670;5.624;2023-03-20T07:44:34;102118.67;;;14.44;53.83
63194;BME280;49289;51.670;5.624;2023-03-20T07:46:21;102109.91;;;14.23;53.99
63194;BME280;49289;51.670;5.624;2023-03-20T07:48:11;102079.95;;;13.94;54.34
63194;BME280;49289;51.670;5.624;2023-03-20T07:49:58;102095.28;;;13.94;54.54
63194;BME280;49289;51.670;5.624;2023-03-20T07:51:46;102103.12;;;13.85;54.78
63194;BME280;49289;51.670;5.624;2023-03-20T07:53:34;102107.13;;;14.10;54.34
63194;BME280;49289;51.670;5.624;2023-03-20T07:55:22;102089.55;;;14.09;54.03
63194;BME280;49289;51.670;5.624;2023-03-20T07:57:09;102106.19;;;14.21;54.16
63194;BME280;49289;51.670;5.624;2023-03-20T07:58:56;102090.33;;;13.92;54.29
63194;BME280;49289;51.670;5.624;2023-03-20T08:00:44;102090.73;;;13.60;54.96
63194;BME280;49289;51.670;5.624;2023-03-20T08:02:32;102094.30;;;13.72;55.00
63194;BME280;49289;51.670;5.624;2023-03-20T08:04:20;102119.47;;;13.42;55.25
63194;BME280;49289;51.670;5.624;2023-03-20T08:06:08;102093.53;;;13.57;55.32
63194;BME280;49289;51.670;5.624;2023-03-20T08:07:55;102092.45;;;13.54;55.26
63194;BME280;49289;51.670;5.624;2023-03-20T08:09:42;102110.86;;;13.97;54.32
63194;BME280;49289;51.670;5.624;2023-03-20T08:11:29;102100.14;;;13.80;54.76
63194;BME280;49289;51.670;5.624;2023-03-20T08:13:16;102093.59;;;14.30;53.24
63194;BME280;49289;51.670;5.624;2023-03-20T08:15:03;102093.42;;;13.91;53.85
63194;BME280;49289;51.670;5.624;2023-03-20T08:16:50;102110.69;;;14.05;53.87
63194;BME280;49289;51.670;5.624;2023-03-20T08:18:37;102108.13;;;13.95;54.09
63194;BME280;49289;51.670;5.624;2023-03-20T08:20:24;102106.77;;;13.92;54.00
63194;BME280;49289;51.670;5.624;2023-03-20T08:22:11;102098.30;;;13.30;54.90
63194;BME280;49289;51.670;5.624;2023-03-20T08:23:58;102109.71;;;14.16;53.95
63194;BME280;49289;51.670;5.624;2023-03-20T08:25:45;102111.91;;;13.91;54.12
63194;BME280;49289;51.670;5.624;2023-03-20T08:27:32;102086.66;;;13.56;54.14
63194;BME280;49289;51.670;5.624;2023-03-20T08:29:19;102117.72;;;13.48;54.61
63194;BME280;49289;51.670;5.624;2023-03-20T08:31:06;102088.61;;;13.67;54.46
63194;BME280;49289;51.670;5.624;2023-03-20T08:32:53;102096.22;;;13.54;54.25
63194;BME280;49289;51.670;5.624;2023-03-20T08:34:40;102111.08;;;13.76;54.30
63194;BME280;49289;51.670;5.624;2023-03-20T08:36:27;102101.88;;;13.18;55.00
63194;BME280;49289;51.670;5.624;2023-03-20T08:38:14;102090.03;;;13.59;54.09
63194;BME280;49289;51.670;5.624;2023-03-20T08:40:01;102099.42;;;13.69;53.92
63194;BME280;49289;51.670;5.624;2023-03-20T08:41:48;102096.10;;;13.43;54.67
63194;BME280;49289;51.670;5.624;2023-03-20T08:43:35;102109.96;;;13.66;54.47
63194;BME280;49289;51.670;5.624;2023-03-20T08:45:23;102112.51;;;13.58;54.23
63194;BME280;49289;51.670;5.624;2023-03-20T08:47:10;102095.58;;;13.66;53.80
63194;BME280;49289;51.670;5.624;2023-03-20T08:48:57;102112.51;;;13.60;54.65
63194;BME280;49289;51.670;5.624;2023-03-20T08:51:32;102111.23;;;13.98;53.82
63194;BME280;49289;51.670;5.624;2023-03-20T08:53:19;102111.88;;;14.04;54.00
63194;BME280;49289;51.670;5.624;2023-03-20T08:55:06;102091.55;;;14.44;53.19
63194;BME280;49289;51.670;5.624;2023-03-20T08:56:53;102095.79;;;13.50;53.85
63194;BME280;49289;51.670;5.624;2023-03-20T08:58:40;102107.66;;;13.92;53.52
63194;BME280;49289;51.670;5.624;2023-03-20T09:00:28;102105.75;;;13.70;54.66
63194;BME280;49289;51.670;5.624;2023-03-20T09:02:16;102104.03;;;13.72;55.03
63194;BME280;49289;51.670;5.624;2023-03-20T09:04:04;102086.28;;;13.79;54.43
63194;BME280;49289;51.670;5.624;2023-03-20T09:05:53;102099.59;;;13.59;55.65
63194;BME280;49289;51.670;5.624;2023-03-20T09:07:41;102078.42;;;14.12;53.82
63194;BME280;49289;51.670;5.624;2023-03-20T09:09:29;102081.12;;;13.69;54.07
63194;BME280;49289;51.670;5.624;2023-03-20T09:11:17;102080.48;;;14.14;53.15
63194;BME280;49289;51.670;5.624;2023-03-20T09:13:04;102102.64;;;14.48;52.71
63194;BME280;49289;51.670;5.624;2023-03-20T09:14:51;102097.81;;;14.02;53.45
63194;BME280;49289;51.670;5.624;2023-03-20T09:16:38;102098.95;;;14.21;53.57
63194;BME280;49289;51.670;5.624;2023-03-20T09:18:25;102088.59;;;14.30;52.59
63194;BME280;49289;51.670;5.624;2023-03-20T09:20:13;102101.79;;;14.57;51.89
63194;BME280;49289;51.670;5.624;2023-03-20T09:22:00;102089.77;;;14.52;51.97
63194;BME280;49289;51.670;5.624;2023-03-20T09:23:47;102106.91;;;14.25;52.99
63194;BME280;49289;51.670;5.624;2023-03-20T09:25:34;102111.24;;;14.27;52.81
63194;BME280;49289;51.670;5.624;2023-03-20T09:27:21;102116.62;;;13.53;54.42
63194;BME280;49289;51.670;5.624;2023-03-20T09:29:08;102092.73;;;13.91;54.11
63194;BME280;49289;51.670;5.624;2023-03-20T09:30:59;102111.69;;;13.75;53.94